sensor_id;sensor_type;location;lat;lon;timestamp;P1;durP1;ratioP1;P2;durP2;ratioP2
36653;SDS011;22650;49.350;20.898;2023-05-07T00:02:25;13.40;;;7.75;;
36653;SDS011;22650;49.350;20.898;2023-05-07T00:06:28;11.27;;;7.15;;
36653;SDS011;22650;49.350;20.898;2023-05-07T00:09:20;13.10;;;8.43;;
36653;SDS011;22650;49.350;20.898;2023-05-07T00:13:12;15.77;;;9.10;;
36653;SDS011;22650;49.350;20.898;2023-05-07T00:16:07;14.68;;;8.32;;
36653;SDS011;22650;49.350;20.898;2023-05-07T00:18:44;15.30;;;10.02;;
36653;SDS011;22650;49.350;20.898;2023-05-07T00:21:18;13.75;;;8.52;;
36653;SDS011;22650;49.350;20.898;2023-05-07T00:23:56;14.32;;;8.63;;
36653;SDS011;22650;49.350;20.898;2023-05-07T00:26:31;14.50;;;7.95;;
36653;SDS011;22650;49.350;20.898;2023-05-07T00:29:06;13.63;;;7.40;;
36653;SDS011;22650;49.350;20.898;2023-05-07T00:31:41;12.05;;;7.22;;
36653;SDS011;22650;49.350;20.898;2023-05-07T00:34:15;12.32;;;8.00;;
36653;SDS011;22650;49.350;20.898;2023-05-07T00:36:49;13.93;;;8.18;;
36653;SDS011;22650;49.350;20.898;2023-05-07T00:39:25;13.18;;;7.18;;
36653;SDS011;22650;49.350;20.898;2023-05-07T00:42:07;20.75;;;9.82;;
36653;SDS011;22650;49.350;20.898;2023-05-07T00:44:43;13.90;;;9.40;;
36653;SDS011;22650;49.350;20.898;2023-05-07T00:47:17;13.43;;;8.05;;
36653;SDS011;22650;49.350;20.898;2023-05-07T00:49:51;11.23;;;7.70;;
36653;SDS011;22650;49.350;20.898;2023-05-07T00:52:26;15.77;;;9.20;;
36653;SDS011;22650;49.350;20.898;2023-05-07T00:55:04;12.48;;;7.80;;
36653;SDS011;22650;49.350;20.898;2023-05-07T00:57:40;14.95;;;8.40;;
36653;SDS011;22650;49.350;20.898;2023-05-07T01:00:16;16.25;;;9.60;;
36653;SDS011;22650;49.350;20.898;2023-05-07T01:02:50;13.55;;;8.05;;
36653;SDS011;22650;49.350;20.898;2023-05-07T01:05:25;14.43;;;8.38;;
36653;SDS011;22650;49.350;20.898;2023-05-07T01:08:02;16.55;;;7.57;;
36653;SDS011;22650;49.350;20.898;2023-05-07T01:10:37;12.30;;;6.78;;
36653;SDS011;22650;49.350;20.898;2023-05-07T01:13:14;13.63;;;8.45;;
36653;SDS011;22650;49.350;20.898;2023-05-07T01:15:50;14.40;;;8.98;;
36653;SDS011;22650;49.350;20.898;2023-05-07T01:18:24;12.45;;;8.02;;
36653;SDS011;22650;49.350;20.898;2023-05-07T01:20:58;26.88;;;9.20;;
36653;SDS011;22650;49.350;20.898;2023-05-07T01:23:36;10.80;;;6.88;;
36653;SDS011;22650;49.350;20.898;2023-05-07T01:26:11;18.73;;;8.93;;
36653;SDS011;22650;49.350;20.898;2023-05-07T01:28:48;13.73;;;8.25;;
36653;SDS011;22650;49.350;20.898;2023-05-07T01:31:22;11.55;;;8.05;;
36653;SDS011;22650;49.350;20.898;2023-05-07T01:33:57;14.80;;;8.38;;
36653;SDS011;22650;49.350;20.898;2023-05-07T01:36:34;13.52;;;8.13;;
36653;SDS011;22650;49.350;20.898;2023-05-07T01:39:11;16.90;;;8.55;;
36653;SDS011;22650;49.350;20.898;2023-05-07T01:41:45;15.50;;;8.70;;
36653;SDS011;22650;49.350;20.898;2023-05-07T01:44:20;17.23;;;10.93;;
36653;SDS011;22650;49.350;20.898;2023-05-07T01:46:55;11.27;;;7.97;;
36653;SDS011;22650;49.350;20.898;2023-05-07T01:49:30;12.32;;;8.05;;
36653;SDS011;22650;49.350;20.898;2023-05-07T01:52:04;15.93;;;8.38;;
36653;SDS011;22650;49.350;20.898;2023-05-07T01:54:40;13.30;;;8.38;;
36653;SDS011;22650;49.350;20.898;2023-05-07T01:57:14;15.65;;;8.23;;
36653;SDS011;22650;49.350;20.898;2023-05-07T01:59:50;12.13;;;7.30;;
36653;SDS011;22650;49.350;20.898;2023-05-07T02:02:24;16.73;;;8.85;;
36653;SDS011;22650;49.350;20.898;2023-05-07T02:05:00;14.50;;;8.20;;
36653;SDS011;22650;49.350;20.898;2023-05-07T02:07:34;11.00;;;7.43;;
36653;SDS011;22650;49.350;20.898;2023-05-07T02:10:13;17.92;;;8.90;;
36653;SDS011;22650;49.350;20.898;2023-05-07T02:12:47;15.38;;;8.45;;
36653;SDS011;22650;49.350;20.898;2023-05-07T02:15:21;14.73;;;8.90;;
36653;SDS011;22650;49.350;20.898;2023-05-07T02:17:59;17.98;;;9.88;;
36653;SDS011;22650;49.350;20.898;2023-05-07T02:20:35;13.80;;;8.25;;
36653;SDS011;22650;49.350;20.898;2023-05-07T02:23:08;16.17;;;8.65;;
36653;SDS011;22650;49.350;20.898;2023-05-07T02:25:44;11.57;;;6.20;;
36653;SDS011;22650;49.350;20.898;2023-05-07T02:28:18;14.57;;;7.32;;
36653;SDS011;22650;49.350;20.898;2023-05-07T02:30:56;12.48;;;7.20;;
36653;SDS011;22650;49.350;20.898;2023-05-07T02:33:31;17.85;;;9.15;;
36653;SDS011;22650;49.350;20.898;2023-05-07T02:36:09;12.15;;;8.02;;
36653;SDS011;22650;49.350;20.898;2023-05-07T02:39:01;15.63;;;9.20;;
36653;SDS011;22650;49.350;20.898;2023-05-07T02:41:37;17.27;;;10.60;;
36653;SDS011;22650;49.350;20.898;2023-05-07T02:44:12;22.38;;;11.27;;
36653;SDS011;22650;49.350;20.898;2023-05-07T02:46:48;51.63;;;16.48;;
36653;SDS011;22650;49.350;20.898;2023-05-07T02:49:22;24.55;;;12.85;;
36653;SDS011;22650;49.350;20.898;2023-05-07T02:51:56;19.50;;;11.65;;
36653;SDS011;22650;49.350;20.898;2023-05-07T02:54:31;20.05;;;9.20;;
36653;SDS011;22650;49.350;20.898;2023-05-07T02:57:06;16.33;;;9.13;;
36653;SDS011;22650;49.350;20.898;2023-05-07T02:59:40;16.73;;;9.32;;
36653;SDS011;22650;49.350;20.898;2023-05-07T03:02:15;19.95;;;10.65;;
36653;SDS011;22650;49.350;20.898;2023-05-07T03:04:49;19.90;;;12.35;;
36653;SDS011;22650;49.350;20.898;2023-05-07T03:07:23;16.95;;;11.10;;
36653;SDS011;22650;49.350;20.898;2023-05-07T03:09:57;21.08;;;11.13;;
36653;SDS011;22650;49.350;20.898;2023-05-07T03:12:34;19.52;;;11.88;;
36653;SDS011;22650;49.350;20.898;2023-05-07T03:15:09;20.40;;;12.05;;
36653;SDS011;22650;49.350;20.898;2023-05-07T03:17:44;25.05;;;10.52;;
36653;SDS011;22650;49.350;20.898;2023-05-07T03:20:19;21.00;;;11.23;;
36653;SDS011;22650;49.350;20.898;2023-05-07T03:22:53;19.85;;;11.88;;
36653;SDS011;22650;49.350;20.898;2023-05-07T03:25:27;22.13;;;11.20;;
36653;SDS011;22650;49.350;20.898;2023-05-07T03:28:03;28.58;;;12.45;;
36653;SDS011;22650;49.350;20.898;2023-05-07T03:30:46;64.28;;;11.68;;
36653;SDS011;22650;49.350;20.898;2023-05-07T03:33:20;31.35;;;11.25;;
36653;SDS011;22650;49.350;20.898;2023-05-07T03:35:54;86.78;;;18.48;;
36653;SDS011;22650;49.350;20.898;2023-05-07T03:38:29;61.72;;;14.75;;
36653;SDS011;22650;49.350;20.898;2023-05-07T03:41:03;58.65;;;13.60;;
36653;SDS011;22650;49.350;20.898;2023-05-07T03:43:39;27.60;;;12.35;;
36653;SDS011;22650;49.350;20.898;2023-05-07T03:46:16;75.05;;;16.15;;
36653;SDS011;22650;49.350;20.898;2023-05-07T03:48:50;125.55;;;16.73;;
36653;SDS011;22650;49.350;20.898;2023-05-07T03:51:25;180.88;;;23.65;;
36653;SDS011;22650;49.350;20.898;2023-05-07T03:53:59;85.60;;;15.98;;
36653;SDS011;22650;49.350;20.898;2023-05-07T03:56:34;56.28;;;14.10;;
36653;SDS011;22650;49.350;20.898;2023-05-07T03:59:10;33.03;;;12.75;;
36653;SDS011;22650;49.350;20.898;2023-05-07T04:01:47;60.97;;;17.00;;
36653;SDS011;22650;49.350;20.898;2023-05-07T04:04:24;26.17;;;14.23;;
36653;SDS011;22650;49.350;20.898;2023-05-07T04:07:00;35.90;;;14.60;;
36653;SDS011;22650;49.350;20.898;2023-05-07T04:09:40;26.30;;;12.93;;
36653;SDS011;22650;49.350;20.898;2023-05-07T04:12:15;25.33;;;12.95;;
36653;SDS011;22650;49.350;20.898;2023-05-07T04:14:51;35.58;;;12.68;;
36653;SDS011;22650;49.350;20.898;2023-05-07T04:17:25;29.65;;;14.63;;
36653;SDS011;22650;49.350;20.898;2023-05-07T04:20:00;52.42;;;13.73;;
36653;SDS011;22650;49.350;20.898;2023-05-07T04:22:34;72.75;;;12.85;;
36653;SDS011;22650;49.350;20.898;2023-05-07T04:25:09;19.92;;;10.93;;
36653;SDS011;22650;49.350;20.898;2023-05-07T04:27:43;20.73;;;11.73;;
36653;SDS011;22650;49.350;20.898;2023-05-07T04:30:19;37.17;;;12.80;;
36653;SDS011;22650;49.350;20.898;2023-05-07T04:32:53;26.23;;;12.60;;
36653;SDS011;22650;49.350;20.898;2023-05-07T04:35:30;15.65;;;10.38;;
36653;SDS011;22650;49.350;20.898;2023-05-07T04:38:04;19.50;;;11.43;;
36653;SDS011;22650;49.350;20.898;2023-05-07T04:40:39;16.42;;;9.82;;
36653;SDS011;22650;49.350;20.898;2023-05-07T04:43:16;18.17;;;11.35;;
36653;SDS011;22650;49.350;20.898;2023-05-07T04:45:55;15.90;;;9.30;;
36653;SDS011;22650;49.350;20.898;2023-05-07T04:48:31;18.30;;;10.48;;
36653;SDS011;22650;49.350;20.898;2023-05-07T04:51:06;19.48;;;11.18;;
36653;SDS011;22650;49.350;20.898;2023-05-07T04:53:41;17.10;;;9.77;;
36653;SDS011;22650;49.350;20.898;2023-05-07T04:56:16;14.90;;;10.05;;
36653;SDS011;22650;49.350;20.898;2023-05-07T04:58:51;21.40;;;12.98;;
36653;SDS011;22650;49.350;20.898;2023-05-07T05:01:27;24.05;;;12.93;;
36653;SDS011;22650;49.350;20.898;2023-05-07T05:04:01;17.92;;;11.02;;
36653;SDS011;22650;49.350;20.898;2023-05-07T05:06:35;19.58;;;11.43;;
36653;SDS011;22650;49.350;20.898;2023-05-07T05:09:10;18.60;;;11.93;;
36653;SDS011;22650;49.350;20.898;2023-05-07T05:11:46;19.00;;;12.27;;
36653;SDS011;22650;49.350;20.898;2023-05-07T05:14:20;21.05;;;11.32;;
36653;SDS011;22650;49.350;20.898;2023-05-07T05:16:56;17.00;;;10.68;;
36653;SDS011;22650;49.350;20.898;2023-05-07T05:19:30;17.33;;;11.05;;
36653;SDS011;22650;49.350;20.898;2023-05-07T05:22:04;15.80;;;10.50;;
36653;SDS011;22650;49.350;20.898;2023-05-07T05:24:38;20.45;;;11.35;;
36653;SDS011;22650;49.350;20.898;2023-05-07T05:27:13;17.85;;;10.45;;
36653;SDS011;22650;49.350;20.898;2023-05-07T05:29:47;21.17;;;11.45;;
36653;SDS011;22650;49.350;20.898;2023-05-07T05:32:23;18.20;;;10.93;;
36653;SDS011;22650;49.350;20.898;2023-05-07T05:35:00;17.20;;;10.68;;
36653;SDS011;22650;49.350;20.898;2023-05-07T05:37:35;19.70;;;9.30;;
36653;SDS011;22650;49.350;20.898;2023-05-07T05:40:12;18.13;;;10.18;;
36653;SDS011;22650;49.350;20.898;2023-05-07T05:42:50;14.88;;;9.55;;
36653;SDS011;22650;49.350;20.898;2023-05-07T05:45:24;20.98;;;11.38;;
36653;SDS011;22650;49.350;20.898;2023-05-07T05:48:05;25.85;;;12.50;;
36653;SDS011;22650;49.350;20.898;2023-05-07T05:50:41;16.95;;;8.98;;
36653;SDS011;22650;49.350;20.898;2023-05-07T05:53:15;15.88;;;8.85;;
36653;SDS011;22650;49.350;20.898;2023-05-07T05:55:49;13.32;;;7.65;;
36653;SDS011;22650;49.350;20.898;2023-05-07T05:58:23;13.10;;;7.43;;
36653;SDS011;22650;49.350;20.898;2023-05-07T06:01:02;10.65;;;6.95;;
36653;SDS011;22650;49.350;20.898;2023-05-07T06:03:41;9.43;;;6.10;;
36653;SDS011;22650;49.350;20.898;2023-05-07T06:06:18;11.70;;;6.05;;
36653;SDS011;22650;49.350;20.898;2023-05-07T06:08:52;7.70;;;5.53;;
36653;SDS011;22650;49.350;20.898;2023-05-07T06:11:33;9.75;;;6.15;;
36653;SDS011;22650;49.350;20.898;2023-05-07T06:20:08;10.95;;;5.22;;
36653;SDS011;22650;49.350;20.898;2023-05-07T06:22:44;7.93;;;5.22;;
36653;SDS011;22650;49.350;20.898;2023-05-07T06:25:19;9.35;;;5.82;;
36653;SDS011;22650;49.350;20.898;2023-05-07T06:27:54;7.90;;;4.60;;
36653;SDS011;22650;49.350;20.898;2023-05-07T06:30:29;7.15;;;4.80;;
36653;SDS011;22650;49.350;20.898;2023-05-07T06:33:03;7.95;;;4.80;;
36653;SDS011;22650;49.350;20.898;2023-05-07T06:35:39;8.38;;;4.95;;
36653;SDS011;22650;49.350;20.898;2023-05-07T06:38:13;10.13;;;5.47;;
36653;SDS011;22650;49.350;20.898;2023-05-07T06:40:48;8.63;;;4.97;;
36653;SDS011;22650;49.350;20.898;2023-05-07T06:43:23;7.45;;;4.70;;
36653;SDS011;22650;49.350;20.898;2023-05-07T06:46:17;8.70;;;4.97;;
36653;SDS011;22650;49.350;20.898;2023-05-07T06:48:51;7.22;;;5.22;;
36653;SDS011;22650;49.350;20.898;2023-05-07T06:51:27;7.88;;;5.10;;
36653;SDS011;22650;49.350;20.898;2023-05-07T06:54:05;9.00;;;4.30;;
36653;SDS011;22650;49.350;20.898;2023-05-07T06:56:42;9.50;;;5.35;;
36653;SDS011;22650;49.350;20.898;2023-05-07T06:59:17;7.68;;;5.13;;
36653;SDS011;22650;49.350;20.898;2023-05-07T07:01:52;7.90;;;5.20;;
36653;SDS011;22650;49.350;20.898;2023-05-07T07:04:27;8.63;;;5.35;;
36653;SDS011;22650;49.350;20.898;2023-05-07T07:07:08;7.82;;;4.85;;
36653;SDS011;22650;49.350;20.898;2023-05-07T07:09:44;9.32;;;5.75;;
36653;SDS011;22650;49.350;20.898;2023-05-07T07:12:21;8.85;;;5.68;;
36653;SDS011;22650;49.350;20.898;2023-05-07T07:14:58;6.45;;;4.72;;
36653;SDS011;22650;49.350;20.898;2023-05-07T07:17:32;8.95;;;5.40;;
36653;SDS011;22650;49.350;20.898;2023-05-07T07:20:09;7.32;;;5.10;;
36653;SDS011;22650;49.350;20.898;2023-05-07T07:22:46;8.65;;;4.88;;
36653;SDS011;22650;49.350;20.898;2023-05-07T07:25:21;8.15;;;4.75;;
36653;SDS011;22650;49.350;20.898;2023-05-07T07:27:55;7.18;;;4.70;;
36653;SDS011;22650;49.350;20.898;2023-05-07T07:30:31;7.95;;;4.55;;
36653;SDS011;22650;49.350;20.898;2023-05-07T07:33:06;8.35;;;5.63;;
36653;SDS011;22650;49.350;20.898;2023-05-07T07:35:42;8.07;;;5.40;;
36653;SDS011;22650;49.350;20.898;2023-05-07T07:38:17;9.82;;;5.57;;
36653;SDS011;22650;49.350;20.898;2023-05-07T07:40:51;8.15;;;5.60;;
36653;SDS011;22650;49.350;20.898;2023-05-07T07:43:27;8.25;;;5.55;;
36653;SDS011;22650;49.350;20.898;2023-05-07T07:46:03;7.97;;;4.78;;
36653;SDS011;22650;49.350;20.898;2023-05-07T07:48:37;7.70;;;5.40;;
36653;SDS011;22650;49.350;20.898;2023-05-07T07:51:11;6.50;;;4.90;;
36653;SDS011;22650;49.350;20.898;2023-05-07T07:53:50;8.77;;;5.07;;
36653;SDS011;22650;49.350;20.898;2023-05-07T07:56:23;7.57;;;4.45;;
36653;SDS011;22650;49.350;20.898;2023-05-07T07:58:58;5.63;;;4.35;;
36653;SDS011;22650;49.350;20.898;2023-05-07T08:01:33;8.68;;;4.63;;
36653;SDS011;22650;49.350;20.898;2023-05-07T08:04:07;7.28;;;4.07;;
36653;SDS011;22650;49.350;20.898;2023-05-07T08:06:44;8.45;;;5.20;;
36653;SDS011;22650;49.350;20.898;2023-05-07T08:09:20;5.63;;;4.05;;
36653;SDS011;22650;49.350;20.898;2023-05-07T08:11:55;8.90;;;4.80;;
36653;SDS011;22650;49.350;20.898;2023-05-07T08:14:29;8.25;;;3.70;;
36653;SDS011;22650;49.350;20.898;2023-05-07T08:17:04;7.07;;;3.35;;
36653;SDS011;22650;49.350;20.898;2023-05-07T08:19:42;7.70;;;4.38;;
36653;SDS011;22650;49.350;20.898;2023-05-07T08:22:18;8.52;;;3.28;;
36653;SDS011;22650;49.350;20.898;2023-05-07T08:24:58;4.50;;;3.40;;
36653;SDS011;22650;49.350;20.898;2023-05-07T08:27:48;5.40;;;3.25;;
36653;SDS011;22650;49.350;20.898;2023-05-07T08:30:25;6.25;;;3.55;;
36653;SDS011;22650;49.350;20.898;2023-05-07T08:33:12;5.55;;;4.03;;
36653;SDS011;22650;49.350;20.898;2023-05-07T08:35:46;5.35;;;3.55;;
36653;SDS011;22650;49.350;20.898;2023-05-07T08:38:21;5.47;;;4.13;;
36653;SDS011;22650;49.350;20.898;2023-05-07T08:40:57;5.53;;;3.30;;
36653;SDS011;22650;49.350;20.898;2023-05-07T08:43:33;5.50;;;3.20;;
36653;SDS011;22650;49.350;20.898;2023-05-07T08:46:11;5.00;;;3.60;;
36653;SDS011;22650;49.350;20.898;2023-05-07T08:48:50;4.55;;;2.78;;
36653;SDS011;22650;49.350;20.898;2023-05-07T08:51:25;4.47;;;2.38;;
36653;SDS011;22650;49.350;20.898;2023-05-07T08:53:59;5.10;;;2.90;;
36653;SDS011;22650;49.350;20.898;2023-05-07T08:59:56;3.88;;;2.58;;
36653;SDS011;22650;49.350;20.898;2023-05-07T09:02:36;6.00;;;2.97;;
36653;SDS011;22650;49.350;20.898;2023-05-07T09:05:12;3.15;;;2.35;;
36653;SDS011;22650;49.350;20.898;2023-05-07T09:08:51;4.20;;;2.30;;
36653;SDS011;22650;49.350;20.898;2023-05-07T09:11:58;3.75;;;2.50;;
36653;SDS011;22650;49.350;20.898;2023-05-07T09:15:29;3.47;;;2.20;;
36653;SDS011;22650;49.350;20.898;2023-05-07T09:56:15;1.38;;;0.82;;
36653;SDS011;22650;49.350;20.898;2023-05-07T09:59:23;1.00;;;0.82;;
36653;SDS011;22650;49.350;20.898;2023-05-07T10:02:05;1.05;;;0.93;;
36653;SDS011;22650;49.350;20.898;2023-05-07T10:04:51;0.90;;;0.60;;
36653;SDS011;22650;49.350;20.898;2023-05-07T10:07:34;1.38;;;0.77;;
36653;SDS011;22650;49.350;20.898;2023-05-07T10:10:12;2.35;;;1.08;;
36653;SDS011;22650;49.350;20.898;2023-05-07T10:12:51;2.00;;;0.90;;
36653;SDS011;22650;49.350;20.898;2023-05-07T10:15:33;0.80;;;0.80;;
36653;SDS011;22650;49.350;20.898;2023-05-07T10:18:18;5.07;;;0.88;;
36653;SDS011;22650;49.350;20.898;2023-05-07T10:26:32;0.57;;;0.47;;
36653;SDS011;22650;49.350;20.898;2023-05-07T10:29:29;0.75;;;0.40;;
36653;SDS011;22650;49.350;20.898;2023-05-07T10:32:16;0.70;;;0.52;;
36653;SDS011;22650;49.350;20.898;2023-05-07T10:35:06;0.70;;;0.65;;
36653;SDS011;22650;49.350;20.898;2023-05-07T10:38:11;1.33;;;0.55;;
36653;SDS011;22650;49.350;20.898;2023-05-07T10:41:16;0.60;;;0.40;;
36653;SDS011;22650;49.350;20.898;2023-05-07T10:48:11;0.30;;;0.30;;
36653;SDS011;22650;49.350;20.898;2023-05-07T10:54:22;0.52;;;0.32;;
36653;SDS011;22650;49.350;20.898;2023-05-07T10:57:47;2.17;;;0.70;;
36653;SDS011;22650;49.350;20.898;2023-05-07T11:05:33;0.85;;;0.40;;
36653;SDS011;22650;49.350;20.898;2023-05-07T11:08:21;1.00;;;0.95;;
36653;SDS011;22650;49.350;20.898;2023-05-07T11:11:10;0.88;;;0.73;;
36653;SDS011;22650;49.350;20.898;2023-05-07T11:13:53;1.42;;;0.80;;
36653;SDS011;22650;49.350;20.898;2023-05-07T11:21:33;1.45;;;0.73;;
36653;SDS011;22650;49.350;20.898;2023-05-07T11:24:17;3.58;;;0.80;;
36653;SDS011;22650;49.350;20.898;2023-05-07T11:27:01;0.95;;;0.88;;
36653;SDS011;22650;49.350;20.898;2023-05-07T11:29:36;0.98;;;0.88;;
36653;SDS011;22650;49.350;20.898;2023-05-07T11:32:17;1.85;;;1.00;;
36653;SDS011;22650;49.350;20.898;2023-05-07T11:34:58;1.60;;;0.85;;
36653;SDS011;22650;49.350;20.898;2023-05-07T11:37:38;0.75;;;0.65;;
36653;SDS011;22650;49.350;20.898;2023-05-07T11:40:13;2.42;;;0.98;;
36653;SDS011;22650;49.350;20.898;2023-05-07T11:42:47;2.08;;;1.10;;
36653;SDS011;22650;49.350;20.898;2023-05-07T11:45:23;1.27;;;0.93;;
36653;SDS011;22650;49.350;20.898;2023-05-07T11:47:58;1.30;;;1.00;;
36653;SDS011;22650;49.350;20.898;2023-05-07T11:50:32;1.40;;;0.80;;
36653;SDS011;22650;49.350;20.898;2023-05-07T11:53:08;1.42;;;1.08;;
36653;SDS011;22650;49.350;20.898;2023-05-07T11:55:45;0.85;;;0.85;;
36653;SDS011;22650;49.350;20.898;2023-05-07T11:58:20;1.67;;;1.10;;
36653;SDS011;22650;49.350;20.898;2023-05-07T12:00:55;2.40;;;1.10;;
36653;SDS011;22650;49.350;20.898;2023-05-07T12:03:29;2.42;;;1.20;;
36653;SDS011;22650;49.350;20.898;2023-05-07T12:06:07;4.43;;;1.20;;
36653;SDS011;22650;49.350;20.898;2023-05-07T12:08:43;3.63;;;1.08;;
36653;SDS011;22650;49.350;20.898;2023-05-07T12:11:22;1.20;;;1.10;;
36653;SDS011;22650;49.350;20.898;2023-05-07T12:13:57;3.33;;;1.23;;
36653;SDS011;22650;49.350;20.898;2023-05-07T12:16:31;1.23;;;1.13;;
36653;SDS011;22650;49.350;20.898;2023-05-07T12:19:06;1.55;;;1.42;;
36653;SDS011;22650;49.350;20.898;2023-05-07T12:21:40;2.60;;;1.42;;
36653;SDS011;22650;49.350;20.898;2023-05-07T12:24:16;5.90;;;2.65;;
36653;SDS011;22650;49.350;20.898;2023-05-07T12:26:52;5.65;;;2.47;;
36653;SDS011;22650;49.350;20.898;2023-05-07T12:29:27;3.28;;;2.05;;
36653;SDS011;22650;49.350;20.898;2023-05-07T12:32:01;4.07;;;2.13;;
36653;SDS011;22650;49.350;20.898;2023-05-07T12:34:37;2.20;;;1.67;;
36653;SDS011;22650;49.350;20.898;2023-05-07T12:37:16;3.40;;;1.30;;
36653;SDS011;22650;49.350;20.898;2023-05-07T12:41:11;3.20;;;1.40;;
36653;SDS011;22650;49.350;20.898;2023-05-07T12:43:45;1.58;;;1.10;;
36653;SDS011;22650;49.350;20.898;2023-05-07T12:46:19;1.77;;;1.33;;
36653;SDS011;22650;49.350;20.898;2023-05-07T12:48:55;1.83;;;1.35;;
36653;SDS011;22650;49.350;20.898;2023-05-07T12:51:29;1.73;;;1.30;;
36653;SDS011;22650;49.350;20.898;2023-05-07T12:54:03;1.83;;;1.60;;
36653;SDS011;22650;49.350;20.898;2023-05-07T12:57:03;3.25;;;1.85;;
36653;SDS011;22650;49.350;20.898;2023-05-07T13:01:35;2.47;;;1.70;;
36653;SDS011;22650;49.350;20.898;2023-05-07T13:04:27;1.90;;;1.30;;
36653;SDS011;22650;49.350;20.898;2023-05-07T13:14:59;1.55;;;1.20;;
36653;SDS011;22650;49.350;20.898;2023-05-07T13:17:53;4.22;;;1.95;;
36653;SDS011;22650;49.350;20.898;2023-05-07T13:20:29;3.80;;;1.58;;
36653;SDS011;22650;49.350;20.898;2023-05-07T13:23:03;1.95;;;1.50;;
36653;SDS011;22650;49.350;20.898;2023-05-07T13:25:44;3.97;;;1.38;;
36653;SDS011;22650;49.350;20.898;2023-05-07T13:28:18;4.63;;;2.15;;
36653;SDS011;22650;49.350;20.898;2023-05-07T13:44:30;4.03;;;1.92;;
36653;SDS011;22650;49.350;20.898;2023-05-07T13:47:15;9.70;;;4.63;;
36653;SDS011;22650;49.350;20.898;2023-05-07T13:49:49;3.78;;;2.95;;
36653;SDS011;22650;49.350;20.898;2023-05-07T13:52:29;4.82;;;2.50;;
36653;SDS011;22650;49.350;20.898;2023-05-07T13:55:07;3.45;;;2.28;;
36653;SDS011;22650;49.350;20.898;2023-05-07T13:57:56;4.80;;;1.80;;
36653;SDS011;22650;49.350;20.898;2023-05-07T14:00:33;3.40;;;2.22;;
36653;SDS011;22650;49.350;20.898;2023-05-07T14:05:58;5.47;;;2.88;;
36653;SDS011;22650;49.350;20.898;2023-05-07T14:08:48;4.40;;;3.22;;
36653;SDS011;22650;49.350;20.898;2023-05-07T14:14:28;4.80;;;2.95;;
36653;SDS011;22650;49.350;20.898;2023-05-07T14:17:13;5.95;;;3.45;;
36653;SDS011;22650;49.350;20.898;2023-05-07T14:19:48;6.20;;;4.15;;
36653;SDS011;22650;49.350;20.898;2023-05-07T14:22:22;5.95;;;4.57;;
36653;SDS011;22650;49.350;20.898;2023-05-07T14:26:03;7.45;;;4.20;;
36653;SDS011;22650;49.350;20.898;2023-05-07T14:28:40;5.18;;;3.50;;
36653;SDS011;22650;49.350;20.898;2023-05-07T14:43:29;7.00;;;4.00;;
36653;SDS011;22650;49.350;20.898;2023-05-07T15:26:01;10.25;;;5.90;;
36653;SDS011;22650;49.350;20.898;2023-05-07T15:34:14;9.48;;;5.25;;
36653;SDS011;22650;49.350;20.898;2023-05-07T15:41:22;6.95;;;4.68;;
36653;SDS011;22650;49.350;20.898;2023-05-07T15:58:17;8.98;;;5.35;;
36653;SDS011;22650;49.350;20.898;2023-05-07T16:01:43;7.63;;;5.00;;
36653;SDS011;22650;49.350;20.898;2023-05-07T16:12:06;7.95;;;4.40;;
36653;SDS011;22650;49.350;20.898;2023-05-07T16:14:52;7.63;;;4.70;;
36653;SDS011;22650;49.350;20.898;2023-05-07T16:17:47;7.63;;;5.00;;
36653;SDS011;22650;49.350;20.898;2023-05-07T16:25:09;8.38;;;5.35;;
36653;SDS011;22650;49.350;20.898;2023-05-07T16:27:54;8.52;;;4.90;;
36653;SDS011;22650;49.350;20.898;2023-05-07T16:30:38;8.82;;;5.13;;
36653;SDS011;22650;49.350;20.898;2023-05-07T16:33:39;7.57;;;4.57;;
36653;SDS011;22650;49.350;20.898;2023-05-07T16:36:21;7.28;;;4.45;;
36653;SDS011;22650;49.350;20.898;2023-05-07T16:39:22;9.25;;;5.05;;
36653;SDS011;22650;49.350;20.898;2023-05-07T16:48:06;8.98;;;4.90;;
36653;SDS011;22650;49.350;20.898;2023-05-07T16:55:31;7.32;;;4.63;;
36653;SDS011;22650;49.350;20.898;2023-05-07T17:13:55;12.65;;;6.03;;
36653;SDS011;22650;49.350;20.898;2023-05-07T17:32:00;9.32;;;4.47;;
36653;SDS011;22650;49.350;20.898;2023-05-07T17:34:42;7.47;;;4.80;;
36653;SDS011;22650;49.350;20.898;2023-05-07T17:46:10;9.15;;;5.10;;
36653;SDS011;22650;49.350;20.898;2023-05-07T18:10:33;6.28;;;4.32;;
36653;SDS011;22650;49.350;20.898;2023-05-07T18:13:33;8.52;;;4.13;;
36653;SDS011;22650;49.350;20.898;2023-05-07T18:16:54;8.23;;;3.90;;
36653;SDS011;22650;49.350;20.898;2023-05-07T18:34:41;7.40;;;3.60;;
36653;SDS011;22650;49.350;20.898;2023-05-07T18:37:49;5.43;;;3.10;;
36653;SDS011;22650;49.350;20.898;2023-05-07T18:40:25;8.23;;;4.05;;
36653;SDS011;22650;49.350;20.898;2023-05-07T18:43:18;9.02;;;4.68;;
36653;SDS011;22650;49.350;20.898;2023-05-07T19:09:23;4.30;;;2.78;;
36653;SDS011;22650;49.350;20.898;2023-05-07T19:12:38;5.53;;;2.88;;
36653;SDS011;22650;49.350;20.898;2023-05-07T19:15:24;4.75;;;2.78;;
36653;SDS011;22650;49.350;20.898;2023-05-07T19:18:03;5.63;;;2.88;;
36653;SDS011;22650;49.350;20.898;2023-05-07T19:20:45;6.10;;;3.33;;
36653;SDS011;22650;49.350;20.898;2023-05-07T19:30:02;5.20;;;2.50;;
36653;SDS011;22650;49.350;20.898;2023-05-07T19:32:42;7.72;;;2.78;;
36653;SDS011;22650;49.350;20.898;2023-05-07T19:35:36;4.40;;;2.63;;
36653;SDS011;22650;49.350;20.898;2023-05-07T19:38:41;5.10;;;2.35;;
36653;SDS011;22650;49.350;20.898;2023-05-07T19:50:35;3.67;;;2.20;;
36653;SDS011;22650;49.350;20.898;2023-05-07T19:53:27;17.92;;;8.02;;
36653;SDS011;22650;49.350;20.898;2023-05-07T19:56:51;7.80;;;3.78;;
36653;SDS011;22650;49.350;20.898;2023-05-07T20:00:11;14.48;;;6.05;;
36653;SDS011;22650;49.350;20.898;2023-05-07T20:02:53;9.30;;;4.18;;
36653;SDS011;22650;49.350;20.898;2023-05-07T20:05:58;10.68;;;4.90;;
36653;SDS011;22650;49.350;20.898;2023-05-07T20:08:41;11.18;;;4.55;;
36653;SDS011;22650;49.350;20.898;2023-05-07T20:11:18;4.38;;;2.83;;
36653;SDS011;22650;49.350;20.898;2023-05-07T20:14:00;4.90;;;2.77;;
36653;SDS011;22650;49.350;20.898;2023-05-07T20:16:51;10.30;;;5.18;;
36653;SDS011;22650;49.350;20.898;2023-05-07T20:19:35;7.68;;;3.05;;
36653;SDS011;22650;49.350;20.898;2023-05-07T20:22:12;6.85;;;3.05;;
36653;SDS011;22650;49.350;20.898;2023-05-07T20:24:47;5.40;;;3.25;;
36653;SDS011;22650;49.350;20.898;2023-05-07T20:27:24;4.72;;;2.80;;
36653;SDS011;22650;49.350;20.898;2023-05-07T20:31:03;5.47;;;2.13;;
36653;SDS011;22650;49.350;20.898;2023-05-07T20:34:27;7.57;;;2.30;;
36653;SDS011;22650;49.350;20.898;2023-05-07T20:41:15;4.07;;;2.75;;
36653;SDS011;22650;49.350;20.898;2023-05-07T20:44:41;4.45;;;2.53;;
36653;SDS011;22650;49.350;20.898;2023-05-07T20:47:26;2.72;;;2.13;;
36653;SDS011;22650;49.350;20.898;2023-05-07T20:55:39;6.65;;;2.25;;
36653;SDS011;22650;49.350;20.898;2023-05-07T21:06:51;2.08;;;1.70;;
36653;SDS011;22650;49.350;20.898;2023-05-07T21:09:25;3.92;;;2.15;;
36653;SDS011;22650;49.350;20.898;2023-05-07T21:12:01;2.83;;;1.77;;
36653;SDS011;22650;49.350;20.898;2023-05-07T21:14:35;1.83;;;1.30;;
36653;SDS011;22650;49.350;20.898;2023-05-07T21:17:11;2.78;;;1.25;;
36653;SDS011;22650;49.350;20.898;2023-05-07T21:19:45;3.47;;;2.08;;